Time;durP1;ratioP1;P1;durP2;ratioP2;P2;SDS_P1;SDS_P2;PMS_P1;PMS_P2;Temp;Humidity;BMP_temperature;BMP_pressure;BME280_temperature;BME280_humidity;BME280_pressure;Samples;Min_cycle;Max_cycle;Signal;HPM_P1;HPM_P2
2022/07/09 00:01:27;;;;;;;7.57;4.28;;;21.70;94.30;;;;;;5099638;28;20024;-88
2022/07/09 00:03:54;;;;;;;7.70;4.07;;;21.60;94.40;;;;;;5113193;28;20099;-87
2022/07/09 00:06:23;;;;;;;8.35;4.70;;;21.60;94.50;;;;;;5060886;28;20116;-87
2022/07/09 00:08:51;;;;;;;8.93;4.07;;;21.60;94.50;;;;;;5074724;28;20024;-87
2022/07/09 00:11:17;;;;;;;8.80;4.30;;;21.60;94.60;;;;;;5114413;28;20024;-88
2022/07/09 00:13:50;;;;;;;8.48;4.65;;;21.50;94.60;;;;;;5114845;28;20081;-88
2022/07/09 00:16:22;;;;;;;9.65;4.45;;;21.50;94.70;;;;;;5115063;28;20031;-89
2022/07/09 00:22:10;;;;;;;6.22;4.20;;;21.40;94.90;;;;;;5092925;28;20234;-88
2022/07/09 00:28:08;;;;;;;7.97;4.47;;;21.30;95.10;;;;;;5094933;28;20040;-87
2022/07/09 00:33:57;;;;;;;7.90;4.85;;;21.20;95.30;;;;;;5098474;28;20073;-88
2022/07/09 00:36:22;;;;;;;8.57;4.88;;;21.20;95.40;;;;;;5097375;28;20460;-88
2022/07/09 00:38:48;;;;;;;10.13;5.53;;;21.10;95.50;;;;;;5097189;28;20053;-88
2022/07/09 00:41:14;;;;;;;7.95;5.00;;;21.10;95.70;;;;;;5097553;28;20028;-88
2022/07/09 00:44:01;;;;;;;8.15;5.45;;;21.10;95.80;;;;;;5097603;28;20028;-88
2022/07/09 00:51:34;;;;;;;8.15;4.85;;;21.00;96.10;;;;;;5103226;28;20093;-89
2022/07/09 00:54:01;;;;;;;9.38;5.05;;;21.00;96.20;;;;;;5081148;28;20028;-89
2022/07/09 00:56:28;;;;;;;7.97;5.30;;;21.00;96.40;;;;;;5098590;28;20122;-89
2022/07/09 00:58:55;;;;;;;8.18;5.30;;;20.90;96.40;;;;;;5065908;28;20054;-89
2022/07/09 01:01:21;;;;;;;9.88;5.60;;;20.90;96.60;;;;;;5082666;28;20027;-89
2022/07/09 01:03:46;;;;;;;9.95;5.15;;;20.90;96.60;;;;;;5064442;28;20031;-89
2022/07/09 01:06:13;;;;;;;8.50;5.45;;;20.90;96.70;;;;;;5062568;28;20097;-89
2022/07/09 01:08:39;;;;;;;9.32;5.53;;;20.80;96.70;;;;;;5092364;28;20034;-90
2022/07/09 01:11:04;;;;;;;12.82;5.57;;;20.80;96.80;;;;;;5079698;28;20024;-89
2022/07/09 01:13:30;;;;;;;7.72;5.72;;;20.80;96.90;;;;;;5066050;28;20034;-89
2022/07/09 01:15:56;;;;;;;9.13;5.53;;;20.80;97.00;;;;;;5109761;28;20088;-89
2022/07/09 01:18:21;;;;;;;9.02;5.63;;;20.70;97.10;;;;;;5065683;28;20423;-89
2022/07/09 01:20:47;;;;;;;9.88;5.75;;;20.70;97.20;;;;;;5086601;28;20030;-89
2022/07/09 01:23:14;;;;;;;8.07;5.20;;;20.70;97.30;;;;;;5085380;28;20115;-88
2022/07/09 01:29:01;;;;;;;11.43;6.03;;;20.60;97.60;;;;;;5115653;28;20022;-89
2022/07/09 01:31:27;;;;;;;8.82;5.90;;;20.60;97.50;;;;;;5097185;28;20025;-88
2022/07/09 01:33:53;;;;;;;8.93;6.07;;;20.50;97.50;;;;;;5096905;28;20384;-89
2022/07/09 01:36:19;;;;;;;8.85;5.90;;;20.50;97.60;;;;;;5091434;28;20043;-89
2022/07/09 01:38:45;;;;;;;9.95;6.20;;;20.50;97.60;;;;;;5098731;28;20488;-90
2022/07/09 01:41:10;;;;;;;10.15;6.10;;;20.50;97.70;;;;;;5115582;28;20177;-89
2022/07/09 01:43:36;;;;;;;10.63;5.70;;;20.40;97.80;;;;;;5064918;28;20015;-88
2022/07/09 01:46:02;;;;;;;8.60;5.72;;;20.40;97.90;;;;;;5065136;28;20059;-89
2022/07/09 01:48:29;;;;;;;8.10;5.95;;;20.30;97.90;;;;;;5064727;28;20032;-89
2022/07/09 01:50:55;;;;;;;7.68;5.82;;;20.30;98.00;;;;;;5081639;28;20043;-89
2022/07/09 01:56:42;;;;;;;9.55;6.43;;;20.20;98.10;;;;;;5115417;28;20119;-89
2022/07/09 01:59:08;;;;;;;10.32;6.47;;;20.10;98.20;;;;;;5081027;28;20065;-89
2022/07/09 02:01:33;;;;;;;11.60;7.18;;;20.10;98.20;;;;;;5061205;28;20023;-89
2022/07/09 02:03:59;;;;;;;10.32;7.10;;;20.00;98.30;;;;;;5080927;28;20055;-89
2022/07/09 02:06:25;;;;;;;9.77;7.03;;;19.90;98.50;;;;;;5060838;28;20028;-88
2022/07/09 02:08:52;;;;;;;9.85;6.90;;;19.90;98.70;;;;;;5083309;28;20407;-89
2022/07/09 02:11:17;;;;;;;11.90;7.40;;;19.90;98.80;;;;;;5098035;28;20043;-89
2022/07/09 02:13:43;;;;;;;10.30;7.07;;;19.80;99.00;;;;;;5082976;28;20027;-89
2022/07/09 02:16:08;;;;;;;9.00;7.05;;;19.80;99.10;;;;;;5097631;28;20028;-88
2022/07/09 02:18:35;;;;;;;9.30;7.10;;;19.80;99.30;;;;;;5080910;28;20027;-89
2022/07/09 02:21:00;;;;;;;9.40;6.63;;;19.80;99.40;;;;;;5068786;28;20027;-89
2022/07/09 02:23:26;;;;;;;10.35;7.35;;;19.80;99.50;;;;;;5096677;28;20473;-89
2022/07/09 02:25:51;;;;;;;7.82;6.35;;;19.80;99.60;;;;;;5097485;28;20031;-89
2022/07/09 02:28:17;;;;;;;12.07;7.18;;;19.70;99.70;;;;;;5085961;28;20016;-89
2022/07/09 02:30:43;;;;;;;10.88;7.18;;;19.70;99.70;;;;;;5097169;28;20469;-89
2022/07/09 02:33:09;;;;;;;9.35;6.78;;;19.60;99.70;;;;;;5091417;28;20027;-89
2022/07/09 02:35:35;;;;;;;11.45;7.07;;;19.60;99.90;;;;;;5096996;28;20024;-88
2022/07/09 02:38:00;;;;;;;9.80;6.30;;;19.60;99.90;;;;;;5093459;28;20032;-89
2022/07/09 02:40:26;;;;;;;10.60;6.18;;;19.50;99.90;;;;;;5081287;28;20073;-90
2022/07/09 02:42:51;;;;;;;11.02;6.65;;;19.50;99.90;;;;;;5063552;28;20039;-89
2022/07/09 02:45:17;;;;;;;9.13;6.25;;;19.40;99.90;;;;;;5060476;28;20031;-89
2022/07/09 02:47:43;;;;;;;10.13;6.32;;;19.40;99.90;;;;;;5093955;28;20027;-89
2022/07/09 02:50:09;;;;;;;8.95;6.13;;;19.40;99.90;;;;;;5061747;28;20101;-88
2022/07/09 02:52:34;;;;;;;9.48;6.55;;;19.40;99.90;;;;;;5057733;28;20481;-89
2022/07/09 02:55:00;;;;;;;12.10;6.28;;;19.40;99.90;;;;;;5060272;28;20081;-89
2022/07/09 02:57:26;;;;;;;8.10;6.32;;;19.40;99.90;;;;;;5076713;28;20461;-89
2022/07/09 02:59:51;;;;;;;12.77;6.25;;;19.40;99.90;;;;;;5059933;28;20020;-89
2022/07/09 03:02:17;;;;;;;8.93;5.90;;;19.30;99.90;;;;;;5060126;28;20101;-89
2022/07/09 03:04:43;;;;;;;9.20;5.57;;;19.30;99.90;;;;;;5076669;28;20477;-89
2022/07/09 03:07:08;;;;;;;9.40;5.75;;;19.30;99.90;;;;;;5106259;28;20063;-89
2022/07/09 03:09:34;;;;;;;10.02;7.03;;;19.30;99.90;;;;;;5070768;28;20035;-89
2022/07/09 03:11:59;;;;;;;7.68;5.45;;;19.30;99.90;;;;;;5090749;28;20072;-89
2022/07/09 03:14:25;;;;;;;7.93;6.00;;;19.20;99.90;;;;;;5068404;28;20119;-89
2022/07/09 03:16:51;;;;;;;12.80;6.82;;;19.20;99.90;;;;;;5075905;28;20085;-89
2022/07/09 03:19:16;;;;;;;7.95;5.90;;;19.20;99.90;;;;;;5076520;28;20396;-89
2022/07/09 03:21:42;;;;;;;8.63;6.15;;;19.20;99.90;;;;;;5093232;28;20592;-89
2022/07/09 03:24:09;;;;;;;8.63;5.97;;;19.20;99.90;;;;;;5076559;28;20505;-89
2022/07/09 03:26:34;;;;;;;8.95;5.65;;;19.20;99.90;;;;;;5104009;28;20031;-89
2022/07/09 03:29:00;;;;;;;10.30;6.78;;;19.20;99.90;;;;;;5093135;28;20114;-89
2022/07/09 03:31:26;;;;;;;9.40;6.03;;;19.10;99.90;;;;;;5081006;28;20032;-88
2022/07/09 03:33:53;;;;;;;9.13;6.15;;;19.10;99.90;;;;;;5074181;28;20108;-89
2022/07/09 03:36:19;;;;;;;10.25;7.40;;;19.10;99.90;;;;;;5066104;28;20028;-89
2022/07/09 03:38:45;;;;;;;9.82;6.63;;;19.10;99.90;;;;;;5058141;28;20025;-89
2022/07/09 03:41:10;;;;;;;13.60;6.43;;;19.10;99.90;;;;;;5047544;28;20016;-88
2022/07/09 03:43:36;;;;;;;10.27;7.50;;;19.00;99.90;;;;;;5048580;28;20016;-88
2022/07/09 03:46:02;;;;;;;9.45;6.50;;;19.00;99.90;;;;;;5062159;28;20032;-89
2022/07/09 03:48:27;;;;;;;12.07;6.95;;;18.90;99.90;;;;;;5067475;28;20024;-88
2022/07/09 03:50:53;;;;;;;12.00;7.50;;;18.90;99.90;;;;;;5074605;28;20040;-88
2022/07/09 03:53:19;;;;;;;10.00;7.45;;;18.80;99.90;;;;;;5102942;28;20090;-89
2022/07/09 03:55:44;;;;;;;10.02;7.68;;;18.80;99.90;;;;;;5075959;28;20024;-89
2022/07/09 03:58:10;;;;;;;10.80;7.57;;;18.80;99.90;;;;;;5092762;28;20016;-89
2022/07/09 04:00:36;;;;;;;10.13;8.40;;;18.80;99.90;;;;;;5082085;28;20470;-89
2022/07/09 04:03:02;;;;;;;10.65;8.65;;;18.80;99.90;;;;;;5076584;28;20486;-89
2022/07/09 04:05:27;;;;;;;11.95;8.95;;;18.80;99.90;;;;;;5063906;28;20031;-89
2022/07/09 04:07:53;;;;;;;12.80;8.88;;;18.80;99.90;;;;;;5086454;28;20089;-88
2022/07/09 04:10:19;;;;;;;11.52;9.07;;;18.80;99.90;;;;;;5086580;28;20081;-89
2022/07/09 04:12:44;;;;;;;10.82;8.88;;;18.80;99.90;;;;;;5093295;28;20024;-89
2022/07/09 04:15:10;;;;;;;10.50;8.48;;;18.80;99.90;;;;;;5074003;28;20492;-89
2022/07/09 04:17:36;;;;;;;15.18;9.00;;;18.80;99.90;;;;;;5065759;28;20025;-89
2022/07/09 04:20:02;;;;;;;11.95;9.43;;;18.90;99.90;;;;;;5075568;28;20031;-90
2022/07/09 04:22:28;;;;;;;16.35;10.45;;;18.80;99.90;;;;;;5097117;28;20051;-89
2022/07/09 04:24:53;;;;;;;11.30;9.15;;;18.90;99.90;;;;;;5098743;28;20393;-89
2022/07/09 04:27:19;;;;;;;10.65;9.23;;;18.80;99.90;;;;;;5086448;28;20091;-88
2022/07/09 04:29:45;;;;;;;13.05;10.05;;;18.80;99.90;;;;;;5093453;28;20016;-89
2022/07/09 04:32:11;;;;;;;12.77;9.70;;;18.80;99.90;;;;;;5092309;28;20070;-88
2022/07/09 04:34:36;;;;;;;14.07;10.38;;;18.70;99.90;;;;;;5092341;28;20061;-89
2022/07/09 04:37:02;;;;;;;13.35;10.05;;;18.70;99.90;;;;;;5078128;28;20086;-89
2022/07/09 04:39:28;;;;;;;11.82;9.38;;;18.70;99.90;;;;;;5075650;28;20017;-89
2022/07/09 04:41:54;;;;;;;13.13;10.20;;;18.70;99.90;;;;;;5058800;28;20064;-89
2022/07/09 04:44:19;;;;;;;13.18;9.88;;;18.70;99.90;;;;;;5075261;28;20071;-89
2022/07/09 04:46:45;;;;;;;12.82;10.48;;;18.80;99.90;;;;;;5077789;28;20097;-88
2022/07/09 04:49:11;;;;;;;12.88;10.35;;;18.80;99.90;;;;;;5079179;28;20358;-89
2022/07/09 04:51:37;;;;;;;13.23;10.15;;;18.80;99.90;;;;;;5078853;28;20039;-89
2022/07/09 04:54:02;;;;;;;15.88;10.73;;;18.80;99.90;;;;;;5095164;28;20035;-88
2022/07/09 04:56:28;;;;;;;19.10;11.40;;;18.80;99.90;;;;;;5099547;28;20027;-87
2022/07/09 04:58:54;;;;;;;16.02;11.88;;;18.80;99.90;;;;;;5082251;28;20030;-87
2022/07/09 05:01:20;;;;;;;15.43;10.90;;;18.80;99.90;;;;;;5079100;28;20466;-87
2022/07/09 05:03:47;;;;;;;14.18;10.77;;;18.80;99.90;;;;;;5082426;28;20070;-87
2022/07/09 05:06:19;;;;;;;13.50;10.68;;;18.80;99.90;;;;;;5099482;27;20023;-88
2022/07/09 05:08:45;;;;;;;14.48;10.98;;;18.70;99.90;;;;;;5119743;27;20034;-88
2022/07/09 05:11:11;;;;;;;15.82;10.95;;;18.70;99.90;;;;;;5105990;28;20023;-89
2022/07/09 05:13:39;;;;;;;14.57;11.25;;;18.70;99.90;;;;;;5098934;28;20043;-88
2022/07/09 05:16:06;;;;;;;16.08;11.63;;;18.70;99.90;;;;;;5079119;28;20385;-87
2022/07/09 05:18:31;;;;;;;16.58;10.98;;;18.70;99.90;;;;;;5098775;28;20023;-89
2022/07/09 05:20:57;;;;;;;13.27;10.02;;;18.70;99.90;;;;;;5078709;28;20039;-88
2022/07/09 05:23:23;;;;;;;14.57;11.27;;;18.70;99.90;;;;;;5099103;28;20103;-89
2022/07/09 05:25:53;;;;;;;15.27;11.02;;;18.70;99.90;;;;;;5089880;27;20059;-89
2022/07/09 05:28:18;;;;;;;19.15;13.48;;;18.70;99.90;;;;;;5085468;27;20047;-88
2022/07/09 05:30:44;;;;;;;14.48;11.75;;;18.70;99.90;;;;;;5102059;27;20068;-88
2022/07/09 05:33:10;;;;;;;16.02;11.65;;;18.70;99.90;;;;;;5106627;28;20023;-87
2022/07/09 05:35:35;;;;;;;15.52;11.65;;;18.70;99.90;;;;;;5085591;27;20027;-88
2022/07/09 05:38:01;;;;;;;13.40;10.30;;;18.80;99.90;;;;;;5108618;28;20016;-88
2022/07/09 05:40:27;;;;;;;16.63;11.90;;;18.80;99.90;;;;;;5100385;27;20028;-87
2022/07/09 05:42:53;;;;;;;16.30;12.65;;;18.80;99.90;;;;;;5090060;28;20085;-88
2022/07/09 05:45:18;;;;;;;18.58;13.85;;;18.80;99.90;;;;;;5092570;28;20031;-87
2022/07/09 05:47:44;;;;;;;16.70;12.73;;;18.80;99.90;;;;;;5078010;28;20481;-87
2022/07/09 05:50:10;;;;;;;20.70;12.55;;;18.80;99.90;;;;;;5077806;28;20044;-87
2022/07/09 05:52:36;;;;;;;16.48;12.48;;;18.90;99.90;;;;;;5087525;27;20480;-87
2022/07/09 05:55:03;;;;;;;16.45;12.77;;;18.90;99.90;;;;;;5088535;28;20488;-87
2022/07/09 05:57:29;;;;;;;16.85;11.63;;;18.90;99.90;;;;;;5096909;27;20065;-88
2022/07/09 05:59:55;;;;;;;15.35;11.32;;;18.90;99.90;;;;;;5106751;27;20100;-88
2022/07/09 06:02:21;;;;;;;16.02;12.25;;;19.00;99.90;;;;;;5065419;28;20110;-88
2022/07/09 06:04:47;;;;;;;16.00;11.68;;;18.90;99.90;;;;;;5070709;28;20488;-88
2022/07/09 06:07:13;;;;;;;18.77;13.05;;;19.00;99.90;;;;;;5085515;27;20012;-88
2022/07/09 06:09:39;;;;;;;16.52;14.05;;;19.00;99.90;;;;;;5118354;27;20673;-88
2022/07/09 06:12:05;;;;;;;16.33;13.40;;;19.00;99.90;;;;;;5071621;28;20034;-87
2022/07/09 06:14:30;;;;;;;17.63;12.80;;;19.00;99.90;;;;;;5097733;28;20023;-88
2022/07/09 06:16:56;;;;;;;17.45;13.23;;;19.10;99.90;;;;;;5077501;28;20082;-89
2022/07/09 06:19:23;;;;;;;19.52;13.88;;;19.10;99.90;;;;;;5094538;27;20019;-88
2022/07/09 06:21:48;;;;;;;19.55;13.50;;;19.10;99.90;;;;;;5077699;28;20031;-89
2022/07/09 06:24:14;;;;;;;19.33;13.10;;;19.10;99.90;;;;;;5077862;28;20020;-88
2022/07/09 06:26:40;;;;;;;16.48;12.65;;;19.20;99.90;;;;;;5112814;27;20472;-89
2022/07/09 06:29:05;;;;;;;19.23;13.45;;;19.20;99.90;;;;;;5101099;27;20038;-88
2022/07/09 06:31:31;;;;;;;16.60;13.63;;;19.20;99.90;;;;;;5067782;27;20036;-88
2022/07/09 06:33:58;;;;;;;16.33;12.90;;;19.30;99.90;;;;;;5090264;28;20035;-88
2022/07/09 06:36:23;;;;;;;20.02;13.52;;;19.30;99.90;;;;;;5087163;28;20489;-88
2022/07/09 06:41:34;;;;;;;15.32;12.27;;;19.30;99.90;;;;;;5100505;28;20471;-87
2022/07/09 06:43:59;;;;;;;18.67;12.82;;;19.40;99.90;;;;;;5116763;27;20035;-88
2022/07/09 06:46:26;;;;;;;19.63;13.77;;;19.40;99.90;;;;;;5100883;27;20020;-88
2022/07/09 06:48:52;;;;;;;22.65;14.50;;;19.40;99.90;;;;;;5099975;28;20109;-88
2022/07/09 06:51:17;;;;;;;19.73;14.43;;;19.40;99.90;;;;;;5097001;28;20053;-88
2022/07/09 06:53:43;;;;;;;20.45;13.48;;;19.50;99.90;;;;;;5097137;28;20028;-89
2022/07/09 06:56:08;;;;;;;13.32;11.18;;;19.50;99.90;;;;;;5087666;27;20429;-88
2022/07/09 06:58:34;;;;;;;18.63;13.02;;;19.50;99.90;;;;;;5067318;28;20027;-88
2022/07/09 07:01:00;;;;;;;13.98;10.63;;;19.50;99.90;;;;;;5085617;27;20456;-88
2022/07/09 07:03:25;;;;;;;17.25;11.18;;;19.60;99.90;;;;;;5085571;28;20020;-88
2022/07/09 07:05:51;;;;;;;13.60;10.48;;;19.70;99.90;;;;;;5079604;28;20024;-88
2022/07/09 07:08:18;;;;;;;15.05;10.23;;;19.70;99.90;;;;;;5082035;28;20039;-88
2022/07/09 07:10:44;;;;;;;12.27;9.57;;;19.70;99.90;;;;;;5089354;27;20054;-88
2022/07/09 07:13:10;;;;;;;14.38;10.43;;;19.80;99.90;;;;;;5069778;27;20039;-88
2022/07/09 07:15:36;;;;;;;12.15;9.77;;;19.80;99.90;;;;;;5087905;28;20027;-88
2022/07/09 07:18:02;;;;;;;13.50;9.82;;;19.80;99.90;;;;;;5117891;27;20483;-88
2022/07/09 07:20:28;;;;;;;12.15;9.35;;;19.80;99.90;;;;;;5100267;27;20032;-88
2022/07/09 07:22:57;;;;;;;11.70;10.43;;;19.90;99.90;;;;;;5086217;27;20541;-88
2022/07/09 07:25:22;;;;;;;14.10;10.77;;;19.90;99.90;;;;;;5072657;28;20027;-88
2022/07/09 07:27:48;;;;;;;12.95;9.85;;;20.00;99.90;;;;;;5111820;27;20031;-88
2022/07/09 07:30:14;;;;;;;13.43;10.27;;;20.10;99.90;;;;;;5059952;28;20370;-88
2022/07/09 07:32:39;;;;;;;11.00;8.40;;;20.00;99.90;;;;;;5089512;28;20031;-89
2022/07/09 07:35:05;;;;;;;10.80;8.80;;;20.10;99.90;;;;;;5110697;28;20492;-88
2022/07/09 07:37:31;;;;;;;13.50;8.77;;;20.10;99.90;;;;;;5059744;28;20036;-88
2022/07/09 07:39:57;;;;;;;10.80;7.85;;;20.20;99.90;;;;;;5073736;28;20020;-88
2022/07/09 07:42:23;;;;;;;10.88;7.70;;;20.20;99.90;;;;;;5093768;28;20024;-88
2022/07/09 07:44:49;;;;;;;9.93;8.02;;;20.20;99.90;;;;;;5066762;28;20392;-89
2022/07/09 07:47:15;;;;;;;11.35;7.25;;;20.30;99.90;;;;;;5096368;28;20019;-88
2022/07/09 07:49:40;;;;;;;10.45;7.32;;;20.30;99.90;;;;;;5063771;28;20023;-88
2022/07/09 07:52:06;;;;;;;8.18;6.55;;;20.40;99.90;;;;;;5083211;28;20047;-88
2022/07/09 07:54:33;;;;;;;9.27;6.07;;;20.40;99.90;;;;;;5086335;28;20036;-88
2022/07/09 07:56:59;;;;;;;8.52;6.28;;;20.50;99.90;;;;;;5079568;28;20023;-88
2022/07/09 07:59:24;;;;;;;9.43;7.28;;;20.50;99.90;;;;;;5076117;28;20386;-88
2022/07/09 08:01:50;;;;;;;8.80;6.22;;;20.60;99.90;;;;;;5081583;28;20028;-89
2022/07/09 08:04:16;;;;;;;9.23;6.68;;;20.70;99.90;;;;;;5062331;28;20031;-89
2022/07/09 08:06:41;;;;;;;8.40;6.07;;;20.70;99.90;;;;;;5081263;28;20034;-88
2022/07/09 08:09:07;;;;;;;7.28;5.00;;;20.80;99.90;;;;;;5081341;28;20028;-88
2022/07/09 08:11:33;;;;;;;7.80;5.13;;;20.90;99.90;;;;;;5081374;28;20046;-88
2022/07/09 08:13:59;;;;;;;7.22;4.80;;;20.90;99.90;;;;;;5065775;28;20060;-88
2022/07/09 08:16:25;;;;;;;7.25;4.20;;;21.00;99.90;;;;;;5096103;28;20023;-88
2022/07/09 08:18:53;;;;;;;10.68;7.15;;;21.00;99.90;;;;;;5087929;28;20028;-89
2022/07/09 08:21:18;;;;;;;11.95;7.28;;;21.10;99.90;;;;;;5081053;28;20020;-88
2022/07/09 08:23:56;;;;;;;10.52;6.40;;;21.20;99.90;;;;;;5089586;28;20024;-89
2022/07/09 08:26:24;;;;;;;9.93;5.53;;;21.20;99.90;;;;;;5084726;28;20023;-88
2022/07/09 08:28:51;;;;;;;6.95;4.40;;;21.20;99.90;;;;;;5086289;28;20016;-89
2022/07/09 08:31:18;;;;;;;8.48;5.30;;;21.30;99.90;;;;;;5095322;27;20054;-88
2022/07/09 08:33:44;;;;;;;7.35;6.03;;;21.30;99.90;;;;;;5112966;27;20024;-88
2022/07/09 08:36:10;;;;;;;7.63;5.22;;;21.40;99.90;;;;;;5099400;28;20365;-89
2022/07/09 08:38:35;;;;;;;9.40;5.50;;;21.50;99.90;;;;;;5078585;28;20099;-89
2022/07/09 08:41:04;;;;;;;8.02;5.28;;;21.50;99.90;;;;;;5100608;27;20073;-89
2022/07/09 08:43:33;;;;;;;8.85;5.20;;;21.50;99.90;;;;;;5099133;28;20022;-88
2022/07/09 08:45:59;;;;;;;6.03;4.40;;;21.60;99.90;;;;;;5098872;28;20106;-88
2022/07/09 08:48:25;;;;;;;11.00;4.80;;;21.70;99.90;;;;;;5081280;28;20104;-88
2022/07/09 08:50:51;;;;;;;9.82;6.03;;;21.70;99.90;;;;;;5097182;28;20039;-88
2022/07/09 08:53:18;;;;;;;7.22;5.68;;;21.70;99.90;;;;;;5079685;28;20027;-88
2022/07/09 08:55:45;;;;;;;8.32;5.40;;;21.80;99.90;;;;;;5098764;28;20024;-88
2022/07/09 08:58:13;;;;;;;13.35;6.32;;;21.90;99.90;;;;;;5117192;28;20008;-87
2022/07/09 09:00:41;;;;;;;10.02;6.80;;;21.90;99.90;;;;;;5109499;28;20484;-88
2022/07/09 09:03:07;;;;;;;7.75;5.22;;;21.90;99.90;;;;;;5082821;28;20028;-87
2022/07/09 09:05:33;;;;;;;7.78;5.22;;;22.00;99.90;;;;;;5082122;28;20024;-88
2022/07/09 09:07:59;;;;;;;8.45;6.18;;;22.00;99.90;;;;;;5109787;28;20427;-88
2022/07/09 09:10:27;;;;;;;9.90;6.30;;;22.10;99.90;;;;;;5067935;28;20072;-88
2022/07/09 09:13:02;;;;;;;10.77;6.60;;;22.10;99.90;;;;;;5108133;28;20020;-88
2022/07/09 09:15:29;;;;;;;8.93;5.55;;;22.10;99.90;;;;;;5082108;28;20020;-88
2022/07/09 09:17:54;;;;;;;7.57;5.22;;;22.20;99.90;;;;;;5065271;28;20385;-88
2022/07/09 09:20:20;;;;;;;11.15;5.63;;;22.10;99.90;;;;;;5113053;28;20011;-88
2022/07/09 09:22:53;;;;;;;7.18;4.70;;;22.20;99.90;;;;;;5105015;28;20556;-88
2022/07/09 09:25:52;;;;;;;9.48;5.60;;;22.20;99.90;;;;;;5083998;28;20032;-87
2022/07/09 09:28:17;;;;;;;10.60;5.47;;;22.20;99.90;;;;;;5098396;28;20028;-86
2022/07/09 09:30:43;;;;;;;8.23;5.18;;;22.20;99.90;;;;;;5117065;28;20365;-87
2022/07/09 09:33:09;;;;;;;8.38;5.45;;;22.30;99.90;;;;;;5100901;28;20426;-88
2022/07/09 09:35:41;;;;;;;10.00;6.63;;;22.30;99.90;;;;;;5091763;28;20034;-88
2022/07/09 09:38:10;;;;;;;11.68;7.85;;;22.30;99.90;;;;;;5118685;28;20020;-88
2022/07/09 09:40:36;;;;;;;12.48;7.65;;;22.40;99.90;;;;;;5116907;28;20016;-86
2022/07/09 09:43:03;;;;;;;9.50;6.93;;;22.40;99.90;;;;;;5078793;28;20051;-89
2022/07/09 09:45:29;;;;;;;8.98;7.18;;;22.40;99.90;;;;;;5105281;28;20134;-88
2022/07/09 09:47:56;;;;;;;10.27;6.72;;;22.40;99.90;;;;;;5084421;28;20493;-87
2022/07/09 09:50:23;;;;;;;11.38;6.22;;;22.40;99.90;;;;;;5118099;27;20050;-87
2022/07/09 09:52:54;;;;;;;9.07;5.30;;;22.40;99.90;;;;;;5124032;27;20070;-88
2022/07/09 09:55:21;;;;;;;8.13;5.82;;;22.50;99.90;;;;;;5101504;27;20023;-88
2022/07/09 09:57:49;;;;;;;7.25;5.95;;;22.50;99.90;;;;;;5115284;28;20019;-86
2022/07/09 10:00:15;;;;;;;12.95;7.18;;;22.50;99.90;;;;;;5114483;28;20445;-88
2022/07/09 10:02:46;;;;;;;9.80;6.40;;;22.60;99.90;;;;;;5098003;28;20026;-88
2022/07/09 10:05:13;;;;;;;9.32;6.90;;;22.60;99.90;;;;;;5081027;28;20072;-88
2022/07/09 10:07:40;;;;;;;9.43;6.88;;;22.60;99.90;;;;;;5106508;27;20125;-88
2022/07/09 10:10:06;;;;;;;10.07;7.55;;;22.70;99.90;;;;;;5103779;27;20369;-87
2022/07/09 10:12:36;;;;;;;12.85;9.73;;;22.70;99.90;;;;;;5090994;28;20032;-88
2022/07/09 10:15:18;;;;;;;11.07;8.90;;;22.80;99.90;;;;;;5077213;28;20032;-88
2022/07/09 10:17:44;;;;;;;9.00;7.82;;;22.80;99.90;;;;;;5084783;28;20426;-89
2022/07/09 10:20:11;;;;;;;9.77;7.35;;;22.80;99.90;;;;;;5098076;28;20087;-87
2022/07/09 10:22:37;;;;;;;9.80;6.50;;;22.90;99.90;;;;;;5101139;27;20447;-87
2022/07/09 10:25:05;;;;;;;8.80;5.82;;;22.80;99.90;;;;;;5136318;27;20116;-88
2022/07/09 10:27:45;;;;;;;8.23;4.90;;;22.90;99.90;;;;;;5097523;28;20024;-88
2022/07/09 10:33:34;;;;;;;5.95;3.80;;;22.90;99.90;;;;;;5110737;28;20023;-87
2022/07/09 10:36:16;;;;;;;5.20;2.72;;;22.90;99.90;;;;;;5097503;28;20019;-87
2022/07/09 10:38:55;;;;;;;4.25;2.22;;;23.00;99.90;;;;;;5097128;28;20114;-88
2022/07/09 10:41:23;;;;;;;3.22;2.08;;;23.10;99.90;;;;;;5087000;28;20017;-87
2022/07/09 10:43:53;;;;;;;2.95;1.85;;;23.10;99.90;;;;;;5058815;28;20165;-86
2022/07/09 10:46:19;;;;;;;3.90;2.03;;;23.20;99.90;;;;;;5097378;28;20404;-87
2022/07/09 10:48:46;;;;;;;3.00;2.00;;;23.20;99.90;;;;;;5096608;28;20026;-86
2022/07/09 10:51:22;;;;;;;2.60;1.70;;;23.30;99.90;;;;;;5076863;28;20036;-86
2022/07/09 10:53:48;;;;;;;2.00;1.40;;;23.40;99.90;;;;;;5077064;28;20028;-86
2022/07/09 10:56:18;;;;;;;3.88;1.80;;;23.40;99.90;;;;;;5079405;28;20020;-87
2022/07/09 10:58:48;;;;;;;2.87;1.57;;;23.50;99.90;;;;;;5084295;28;20070;-87
2022/07/09 11:01:27;;;;;;;2.50;1.45;;;23.50;99.90;;;;;;5078523;28;20020;-86
2022/07/09 11:03:58;;;;;;;2.53;1.40;;;23.60;99.90;;;;;;5073210;28;20048;-86
2022/07/09 11:06:24;;;;;;;2.35;1.27;;;23.60;99.90;;;;;;5092503;28;20024;-86
2022/07/09 11:08:49;;;;;;;2.00;1.40;;;23.70;99.80;;;;;;5084185;28;20035;-86
2022/07/09 11:11:22;;;;;;;2.97;1.33;;;23.70;99.60;;;;;;5075956;28;20020;-86
2022/07/09 11:13:54;;;;;;;2.30;1.42;;;23.70;99.30;;;;;;5072536;28;20027;-86
2022/07/09 11:16:24;;;;;;;1.30;1.00;;;23.80;99.20;;;;;;5103464;28;20050;-86
2022/07/09 11:18:50;;;;;;;1.60;1.05;;;23.80;99.10;;;;;;5082068;28;20020;-87
2022/07/09 11:21:22;;;;;;;2.45;1.55;;;23.90;99.10;;;;;;5072335;23;20044;-82
2022/07/09 11:23:49;;;;;;;2.85;1.30;;;24.00;99.00;;;;;;5054922;28;20021;-82
2022/07/09 11:26:15;;;;;;;2.08;1.40;;;24.00;98.70;;;;;;5054700;28;20025;-82
2022/07/09 11:28:40;;;;;;;2.40;1.40;;;24.00;98.40;;;;;;5038560;28;20031;-82
2022/07/09 11:31:06;;;;;;;2.53;1.27;;;24.10;98.20;;;;;;5055261;28;20357;-82
2022/07/09 11:36:18;;;;;;;2.63;1.27;;;24.10;98.20;;;;;;5057904;28;20086;-83
2022/07/09 11:38:52;;;;;;;2.25;1.30;;;24.20;98.00;;;;;;5037985;28;20081;-83
2022/07/09 11:41:18;;;;;;;3.38;1.50;;;24.30;97.70;;;;;;5043456;28;20017;-82
2022/07/09 11:43:51;;;;;;;4.25;1.10;;;24.30;97.10;;;;;;5070188;28;20141;-82
2022/07/09 11:46:20;;;;;;;2.13;0.90;;;24.30;96.60;;;;;;5073106;28;20464;-82
2022/07/09 11:48:53;;;;;;;2.25;1.05;;;24.30;96.40;;;;;;5038558;28;20033;-82
2022/07/09 11:51:33;;;;;;;4.80;1.20;;;24.30;96.30;;;;;;5038483;28;20024;-82
2022/07/09 11:54:00;;;;;;;2.72;1.10;;;24.30;96.10;;;;;;5054258;28;20468;-82
2022/07/09 11:56:25;;;;;;;3.38;1.05;;;24.40;96.10;;;;;;5054579;28;20013;-82
2022/07/09 11:58:52;;;;;;;1.25;0.95;;;24.50;96.20;;;;;;5037697;28;20369;-83
2022/07/09 12:01:19;;;;;;;5.40;1.45;;;24.50;96.00;;;;;;5072967;28;20096;-83
2022/07/09 12:03:49;;;;;;;1.98;1.23;;;24.60;95.60;;;;;;5054320;28;20025;-83
2022/07/09 12:06:15;;;;;;;3.10;1.30;;;24.60;95.50;;;;;;5072596;28;20471;-82
2022/07/09 12:08:43;;;;;;;4.50;1.27;;;24.70;95.20;;;;;;5037991;28;20028;-83
2022/07/09 12:11:09;;;;;;;2.58;1.20;;;24.70;94.90;;;;;;5060626;28;20498;-82
2022/07/09 12:13:34;;;;;;;2.80;1.42;;;24.70;94.70;;;;;;5047156;28;20025;-83
2022/07/09 12:16:00;;;;;;;3.95;1.33;;;24.70;94.30;;;;;;5055030;28;20040;-82
2022/07/09 12:18:27;;;;;;;6.43;1.40;;;24.80;94.20;;;;;;5047453;28;20432;-83
2022/07/09 12:20:52;;;;;;;2.75;0.90;;;24.80;94.10;;;;;;5059454;28;20044;-83
2022/07/09 12:23:18;;;;;;;2.08;0.95;;;24.80;93.80;;;;;;5055133;28;20471;-83
2022/07/09 12:25:44;;;;;;;2.83;1.10;;;24.90;93.50;;;;;;5054777;28;20032;-81
2022/07/09 12:28:09;;;;;;;1.88;1.00;;;24.90;93.50;;;;;;5038342;28;20133;-80
2022/07/09 12:30:35;;;;;;;3.15;1.50;;;25.00;93.20;;;;;;5054669;28;20028;-81
2022/07/09 12:33:00;;;;;;;2.08;1.00;;;25.00;92.50;;;;;;5037719;28;20025;-80
2022/07/09 12:35:27;;;;;;;2.55;0.90;;;25.00;92.20;;;;;;5054468;28;20123;-80
2022/07/09 12:37:53;;;;;;;2.47;1.00;;;25.10;92.20;;;;;;5073334;28;20029;-82
2022/07/09 12:40:18;;;;;;;1.73;1.33;;;25.20;91.90;;;;;;5047641;28;20353;-81
2022/07/09 12:42:44;;;;;;;3.75;1.10;;;25.20;91.80;;;;;;5043557;28;20031;-82
2022/07/09 12:45:12;;;;;;;3.90;1.10;;;25.20;91.60;;;;;;5054341;28;20044;-82
2022/07/09 12:47:37;;;;;;;4.10;1.20;;;25.30;91.50;;;;;;5054321;28;20437;-82
2022/07/09 12:50:04;;;;;;;2.45;1.10;;;25.40;91.00;;;;;;5037824;28;20020;-82
2022/07/09 12:52:32;;;;;;;2.10;0.90;;;25.30;90.40;;;;;;5037742;28;20017;-80
2022/07/09 12:54:59;;;;;;;2.00;0.90;;;25.40;90.30;;;;;;5043118;28;20033;-80
2022/07/09 12:57:25;;;;;;;2.38;0.88;;;25.50;90.40;;;;;;5069086;28;20021;-83
2022/07/09 12:59:51;;;;;;;3.58;1.20;;;25.50;90.40;;;;;;5053956;28;20029;-84
2022/07/09 13:02:16;;;;;;;2.75;1.00;;;25.60;90.00;;;;;;5037556;28;20028;-85
2022/07/09 13:04:56;;;;;;;2.47;0.98;;;25.60;88.00;;;;;;5057007;28;20090;-95
2022/07/09 13:07:22;;;;;;;3.75;1.20;;;25.60;87.30;;;;;;5059886;28;20012;-96
2022/07/09 13:09:53;;;;;;;6.00;1.70;;;25.60;87.40;;;;;;5041675;28;20353;-96